createdAt,value
2023-07-24T00:01:46.601Z,91.79
2023-07-24T00:04:49.494Z,91.60
2023-07-24T00:07:51.824Z,92.18
2023-07-24T00:10:54.710Z,92.00
2023-07-24T00:13:57.052Z,91.37
2023-07-24T00:16:59.671Z,91.37
2023-07-24T00:20:02.045Z,92.16
2023-07-24T00:23:04.753Z,92.50
2023-07-24T00:26:07.132Z,92.65
2023-07-24T00:29:09.741Z,91.96
2023-07-24T00:32:12.672Z,92.62
2023-07-24T00:35:15.356Z,92.97
2023-07-24T00:38:17.773Z,92.75
2023-07-24T00:41:20.367Z,92.05
2023-07-24T00:44:23.201Z,92.84
2023-07-24T00:47:26.783Z,93.47
2023-07-24T00:50:30.035Z,93.64
2023-07-24T00:53:32.863Z,94.05
2023-07-24T00:56:35.681Z,94.29
2023-07-24T00:59:38.488Z,94.40
2023-07-24T01:02:40.979Z,94.48
2023-07-24T01:05:46.823Z,95.05
2023-07-24T01:08:49.244Z,95.14
2023-07-24T01:11:55.958Z,95.48
2023-07-24T01:15:15.384Z,95.35
2023-07-24T01:18:18.613Z,95.11
2023-07-24T01:21:26.740Z,95.34
2023-07-24T01:24:44.797Z,95.77
2023-07-24T01:27:47.422Z,95.79
2023-07-24T01:30:50.122Z,95.65
2023-07-24T01:33:52.589Z,96.48
2023-07-24T01:36:55.236Z,96.37
2023-07-24T01:39:57.898Z,96.19
2023-07-24T01:43:00.806Z,97.08
2023-07-24T01:46:03.318Z,97.15
2023-07-24T01:49:06.094Z,97.43
2023-07-24T01:52:08.446Z,97.27
2023-07-24T01:55:11.047Z,98.77
2023-07-24T01:58:13.334Z,98.89
2023-07-24T02:01:16.040Z,99.76
2023-07-24T02:04:18.807Z,99.85
2023-07-24T02:07:23.063Z,100.00
2023-07-24T02:10:25.643Z,100.00
2023-07-24T02:13:27.963Z,100.00
2023-07-24T02:16:30.795Z,100.00
2023-07-24T02:19:33.411Z,100.00
2023-07-24T02:22:36.648Z,100.00
2023-07-24T02:25:41.735Z,100.00
2023-07-24T02:28:44.382Z,100.00
2023-07-24T02:31:46.795Z,100.00
2023-07-24T02:34:52.593Z,100.00
2023-07-24T02:37:54.841Z,100.00
2023-07-24T02:40:58.051Z,100.00
2023-07-24T02:44:00.463Z,100.00
2023-07-24T02:47:03.201Z,100.00
2023-07-24T02:50:05.680Z,100.00
2023-07-24T02:53:08.527Z,100.00
2023-07-24T02:56:10.874Z,100.00
2023-07-24T02:59:13.557Z,100.00
2023-07-24T03:02:15.908Z,100.00
2023-07-24T03:05:18.678Z,100.00
2023-07-24T03:08:21.004Z,100.00
2023-07-24T03:11:23.642Z,100.00
2023-07-24T03:14:27.152Z,100.00
2023-07-24T03:17:29.875Z,100.00
2023-07-24T03:20:32.285Z,100.00
2023-07-24T03:23:34.872Z,100.00
2023-07-24T03:26:37.493Z,100.00
2023-07-24T03:29:42.052Z,100.00
2023-07-24T03:32:44.481Z,100.00
2023-07-24T03:35:47.096Z,100.00
2023-07-24T03:38:49.508Z,100.00
2023-07-24T03:41:52.104Z,100.00
2023-07-24T03:44:54.830Z,100.00
2023-07-24T03:47:57.509Z,100.00
2023-07-24T03:51:03.322Z,100.00
2023-07-24T03:54:05.988Z,100.00
2023-07-24T03:57:08.393Z,100.00
2023-07-24T04:00:11.362Z,100.00
2023-07-24T04:03:15.058Z,100.00
2023-07-24T04:06:17.737Z,100.00
2023-07-24T04:09:20.031Z,100.00
2023-07-24T04:12:24.794Z,100.00
2023-07-24T04:15:27.055Z,100.00
2023-07-24T04:18:29.646Z,100.00
2023-07-24T04:21:32.053Z,100.00
2023-07-24T04:24:34.769Z,100.00
2023-07-24T04:27:37.100Z,100.00
2023-07-24T04:30:39.686Z,100.00
2023-07-24T04:33:42.030Z,100.00
2023-07-24T04:36:44.624Z,100.00
2023-07-24T04:39:47.080Z,100.00
2023-07-24T04:42:49.768Z,100.00
2023-07-24T04:45:52.076Z,100.00
2023-07-24T04:48:54.763Z,100.00
2023-07-24T04:51:57.243Z,100.00
2023-07-24T04:54:59.855Z,100.00
2023-07-24T04:58:02.153Z,100.00
2023-07-24T05:01:05.367Z,100.00
2023-07-24T05:04:07.756Z,100.00
2023-07-24T05:07:10.307Z,100.00
2023-07-24T05:10:14.474Z,100.00
2023-07-24T05:13:17.274Z,100.00
2023-07-24T05:16:19.650Z,100.00
2023-07-24T05:19:22.306Z,100.00
2023-07-24T05:22:24.622Z,100.00
2023-07-24T05:25:27.238Z,99.59
2023-07-24T05:28:30.210Z,98.91
2023-07-24T05:31:34.774Z,98.32
2023-07-24T05:34:37.204Z,97.07
2023-07-24T05:37:39.815Z,98.35
2023-07-24T05:40:42.255Z,97.15
2023-07-24T05:43:44.858Z,96.10
2023-07-24T05:46:47.153Z,95.49
2023-07-24T05:49:49.821Z,94.13
2023-07-24T05:52:52.573Z,92.80
2023-07-24T05:56:01.443Z,92.41
2023-07-24T05:59:03.812Z,90.54
2023-07-24T06:02:06.501Z,90.53
2023-07-24T06:05:09.274Z,86.97
2023-07-24T06:08:12.757Z,85.00
2023-07-24T06:11:15.448Z,86.48
2023-07-24T06:14:17.898Z,86.65
2023-07-24T06:17:20.563Z,87.42
2023-07-24T06:20:22.872Z,86.87
2023-07-24T06:23:25.493Z,86.31
2023-07-24T06:26:28.198Z,85.90
2023-07-24T06:29:31.098Z,86.35
2023-07-24T06:32:33.608Z,84.56
2023-07-24T06:35:36.757Z,83.84
2023-07-24T06:38:39.116Z,81.68
2023-07-24T06:41:41.890Z,82.31
2023-07-24T06:44:44.267Z,81.59
2023-07-24T06:47:46.856Z,81.52
2023-07-24T06:50:49.216Z,80.99
2023-07-24T06:53:51.926Z,78.50
2023-07-24T06:56:54.434Z,67.42
2023-07-24T06:59:57.004Z,51.48
2023-07-24T07:03:02.089Z,41.64
2023-07-24T07:06:04.847Z,36.14
2023-07-24T07:09:07.606Z,32.56
2023-07-24T07:12:10.246Z,32.23
2023-07-24T07:15:12.554Z,29.78
2023-07-24T07:18:16.287Z,28.13
2023-07-24T07:21:19.311Z,27.70
2023-07-24T07:24:22.010Z,28.36
2023-07-24T07:27:24.362Z,26.70
2023-07-24T07:30:27.001Z,26.46
2023-07-24T07:33:30.558Z,26.62
2023-07-24T07:36:33.301Z,27.64
2023-07-24T07:39:35.765Z,26.75
2023-07-24T07:42:39.771Z,26.08
2023-07-24T07:45:42.621Z,25.90
2023-07-24T07:48:47.311Z,25.14
2023-07-24T07:51:49.628Z,23.94
2023-07-24T07:54:52.316Z,24.31
2023-07-24T07:57:54.725Z,25.56
2023-07-24T08:00:57.371Z,24.39
2023-07-24T08:04:00.381Z,24.25
2023-07-24T08:07:02.842Z,24.65
2023-07-24T08:10:05.657Z,24.52
2023-07-24T08:13:08.853Z,24.65
2023-07-24T08:16:19.605Z,24.83
2023-07-24T08:19:22.471Z,24.33
2023-07-24T08:22:25.142Z,25.34
2023-07-24T08:25:27.431Z,25.01
2023-07-24T08:28:30.165Z,25.55
2023-07-24T08:31:32.620Z,25.08
2023-07-24T08:34:35.427Z,25.96
2023-07-24T08:37:37.790Z,26.04
2023-07-24T08:40:40.505Z,25.74
2023-07-24T08:43:43.849Z,25.73
2023-07-24T08:46:47.181Z,25.10
2023-07-24T08:49:50.114Z,24.66
2023-07-24T08:52:52.794Z,24.61
2023-07-24T08:55:55.884Z,25.26
2023-07-24T08:58:58.629Z,24.70
2023-07-24T09:02:01.089Z,24.12
2023-07-24T09:05:04.903Z,23.56
2023-07-24T09:08:07.556Z,22.56
2023-07-24T09:11:10.905Z,22.41
2023-07-24T09:14:21.075Z,24.09
2023-07-24T09:17:23.737Z,23.39
2023-07-24T09:23:33.649Z,23.95
2023-07-24T09:26:36.008Z,21.98
2023-07-24T09:29:41.267Z,24.39
2023-07-24T09:32:43.769Z,27.62
2023-07-24T09:35:46.398Z,29.08
2023-07-24T09:38:48.656Z,30.79
2023-07-24T09:41:51.465Z,32.82
2023-07-24T09:44:53.858Z,32.68
2023-07-24T09:48:05.098Z,33.52
2023-07-24T09:51:12.984Z,33.42
2023-07-24T09:54:27.543Z,33.70
2023-07-24T09:57:30.615Z,33.59
2023-07-24T10:00:33.731Z,33.29
2023-07-24T10:03:37.208Z,33.91
2023-07-24T10:06:39.673Z,33.62
2023-07-24T10:09:43.944Z,33.53
2023-07-24T10:12:46.344Z,33.20
2023-07-24T10:15:49.745Z,33.48
2023-07-24T10:18:52.083Z,32.18
2023-07-24T10:21:54.776Z,32.44
2023-07-24T10:24:57.214Z,32.35
2023-07-24T10:28:08.765Z,31.66
2023-07-24T10:31:24.371Z,31.32
2023-07-24T10:34:36.819Z,30.57
2023-07-24T10:37:39.130Z,30.60
2023-07-24T10:40:42.312Z,30.41
2023-07-24T10:43:48.269Z,30.37
2023-07-24T10:46:52.394Z,31.27
2023-07-24T10:49:54.821Z,30.19
2023-07-24T10:52:58.672Z,30.48
2023-07-24T10:56:01.341Z,30.20
2023-07-24T10:59:05.273Z,30.97
2023-07-24T11:02:08.453Z,30.76
2023-07-24T11:05:13.239Z,29.92
2023-07-24T11:08:19.604Z,30.81
2023-07-24T11:11:22.294Z,29.68
2023-07-24T11:14:25.508Z,30.28
2023-07-24T11:17:36.114Z,30.24
2023-07-24T11:20:49.144Z,29.62
2023-07-24T11:23:53.238Z,29.27
2023-07-24T11:26:55.657Z,30.60
2023-07-24T11:29:58.242Z,31.26
2023-07-24T11:33:02.250Z,31.14
2023-07-24T11:36:05.268Z,31.32
2023-07-24T11:39:07.817Z,30.82
2023-07-24T11:42:10.613Z,29.56
2023-07-24T11:45:13.032Z,29.43
2023-07-24T11:48:15.938Z,29.48
2023-07-24T11:51:18.317Z,29.96
2023-07-24T11:54:20.964Z,29.95
2023-07-24T11:57:23.296Z,30.40
2023-07-24T12:00:26.134Z,30.70
2023-07-24T12:03:29.829Z,29.47
2023-07-24T12:06:33.321Z,29.93
2023-07-24T12:12:47.266Z,29.89
2023-07-24T12:15:50.434Z,29.08
2023-07-24T12:18:52.843Z,30.15
2023-07-24T12:21:55.648Z,29.56
2023-07-24T12:24:58.086Z,30.05
2023-07-24T12:28:00.784Z,30.37
2023-07-24T12:31:03.700Z,30.90
2023-07-24T12:34:06.585Z,30.81
2023-07-24T12:37:08.958Z,31.82
2023-07-24T12:40:11.707Z,31.90
2023-07-24T12:43:15.905Z,32.40
2023-07-24T12:46:18.654Z,31.75
2023-07-24T12:49:21.273Z,30.75
2023-07-24T12:52:23.946Z,31.50
2023-07-24T12:55:28.105Z,31.27
2023-07-24T12:58:30.902Z,31.28
2023-07-24T13:01:33.661Z,31.30
2023-07-24T13:04:36.634Z,31.71
2023-07-24T13:07:39.247Z,32.50
2023-07-24T13:10:41.859Z,32.91
2023-07-24T13:13:44.688Z,33.87
2023-07-24T13:16:47.553Z,33.46
2023-07-24T13:19:49.947Z,33.13
2023-07-24T13:22:52.554Z,32.66
2023-07-24T13:25:55.043Z,33.05
2023-07-24T13:28:57.626Z,33.15
2023-07-24T13:32:00.005Z,32.83
2023-07-24T13:35:02.966Z,33.86
2023-07-24T13:38:05.348Z,34.11
2023-07-24T13:41:09.376Z,34.86
2023-07-24T13:44:11.792Z,34.59
2023-07-24T13:47:14.596Z,35.28
2023-07-24T13:50:16.890Z,33.77
2023-07-24T13:53:19.398Z,34.65
2023-07-24T13:56:24.249Z,34.49
2023-07-24T13:59:26.885Z,34.48
2023-07-24T14:02:29.366Z,34.12
2023-07-24T14:05:32.309Z,33.63
2023-07-24T14:08:34.737Z,35.02
2023-07-24T14:11:37.351Z,35.72
2023-07-24T14:14:39.721Z,35.76
2023-07-24T14:17:42.385Z,35.57
2023-07-24T14:20:44.839Z,35.55
2023-07-24T14:23:47.492Z,34.18
2023-07-24T14:26:49.926Z,33.85
2023-07-24T14:29:52.632Z,34.44
2023-07-24T14:32:55.004Z,35.16
2023-07-24T14:35:57.636Z,35.32
2023-07-24T14:39:00.510Z,35.08
2023-07-24T14:42:03.162Z,34.87
2023-07-24T14:45:05.813Z,35.48
2023-07-24T14:48:13.829Z,34.92
2023-07-24T14:51:16.391Z,35.54
2023-07-24T14:54:19.136Z,34.64
2023-07-24T14:57:25.657Z,34.59
2023-07-24T15:00:30.448Z,34.54
2023-07-24T15:03:32.805Z,34.36
2023-07-24T15:06:53.963Z,33.39
2023-07-24T15:09:56.265Z,33.34
2023-07-24T15:12:58.899Z,33.34
2023-07-24T15:16:01.374Z,33.79
2023-07-24T15:19:04.038Z,34.19
2023-07-24T15:22:06.650Z,34.43
2023-07-24T15:25:10.703Z,34.50
2023-07-24T15:28:13.562Z,34.78
2023-07-24T15:31:16.448Z,34.81
2023-07-24T15:34:18.925Z,34.19
2023-07-24T15:37:21.846Z,34.30
2023-07-24T15:40:24.218Z,34.13
2023-07-24T15:43:26.983Z,34.83
2023-07-24T15:46:32.572Z,34.30
2023-07-24T15:49:35.451Z,33.76
2023-07-24T15:52:37.750Z,33.99
2023-07-24T15:55:40.350Z,33.57
2023-07-24T15:58:44.035Z,34.21
2023-07-24T16:01:46.743Z,34.55
2023-07-24T16:04:51.335Z,34.84
2023-07-24T16:07:53.781Z,34.62
2023-07-24T16:10:56.641Z,34.76
2023-07-24T16:13:58.929Z,34.55
2023-07-24T16:17:01.777Z,34.59
2023-07-24T16:20:05.065Z,34.49
2023-07-24T16:23:08.103Z,35.04
2023-07-24T16:26:10.454Z,35.56
2023-07-24T16:29:13.001Z,35.67
2023-07-24T16:32:15.380Z,35.97
2023-07-24T16:35:18.025Z,36.23
2023-07-24T16:38:20.423Z,36.72
2023-07-24T16:41:23.261Z,36.76
2023-07-24T16:44:33.220Z,37.08
2023-07-24T16:47:39.774Z,37.65
2023-07-24T16:50:42.255Z,37.68
2023-07-24T16:53:44.891Z,38.53
2023-07-24T16:56:47.212Z,38.95
2023-07-24T16:59:49.812Z,39.21
2023-07-24T17:02:52.371Z,38.89
2023-07-24T17:05:55.217Z,39.05
2023-07-24T17:08:57.550Z,39.06
2023-07-24T17:12:01.024Z,39.33
2023-07-24T17:15:04.857Z,40.01
2023-07-24T17:18:07.592Z,40.34
2023-07-24T17:21:09.908Z,40.86
2023-07-24T17:24:12.567Z,41.63
2023-07-24T17:27:15.077Z,41.88
2023-07-24T17:30:18.083Z,42.07
2023-07-24T17:33:20.437Z,42.37
2023-07-24T17:36:23.078Z,42.74
2023-07-24T17:39:25.378Z,42.75
2023-07-24T17:42:27.958Z,43.22
2023-07-24T17:45:30.278Z,43.36
2023-07-24T17:48:32.890Z,43.91
2023-07-24T17:51:35.450Z,44.19
2023-07-24T17:54:40.508Z,44.74
2023-07-24T17:57:42.819Z,44.75
2023-07-24T18:00:46.981Z,45.25
2023-07-24T18:03:49.751Z,45.35
2023-07-24T18:06:52.293Z,45.63
2023-07-24T18:09:54.989Z,45.64
2023-07-24T18:12:57.763Z,45.98
2023-07-24T18:16:00.310Z,46.32
2023-07-24T18:19:04.881Z,46.52
2023-07-24T18:22:07.538Z,47.02
2023-07-24T18:25:10.686Z,47.10
2023-07-24T18:28:13.456Z,47.30
2023-07-24T18:31:15.840Z,48.48
2023-07-24T18:34:20.456Z,48.09
2023-07-24T18:37:22.841Z,48.65
2023-07-24T18:40:25.662Z,49.09
2023-07-24T18:43:28.354Z,49.20
2023-07-24T18:46:30.899Z,49.06
2023-07-24T18:49:33.518Z,49.41
2023-07-24T18:52:36.259Z,49.70
2023-07-24T18:55:39.562Z,49.40
2023-07-24T18:58:44.712Z,49.86
2023-07-24T19:01:48.160Z,50.37
2023-07-24T19:04:50.776Z,50.88
2023-07-24T19:07:53.077Z,51.23
2023-07-24T19:10:55.678Z,51.91
2023-07-24T19:13:58.066Z,52.32
2023-07-24T19:17:00.728Z,53.23
2023-07-24T19:20:03.074Z,53.38
2023-07-24T19:23:05.709Z,53.55
2023-07-24T19:26:09.722Z,54.16
2023-07-24T19:29:12.328Z,54.61
2023-07-24T19:32:14.639Z,54.82
2023-07-24T19:35:19.223Z,55.78
2023-07-24T19:38:21.547Z,56.31
2023-07-24T19:41:24.697Z,56.85
2023-07-24T19:44:27.100Z,56.72
2023-07-24T19:47:29.897Z,57.24
2023-07-24T19:50:32.261Z,57.73
2023-07-24T19:53:34.977Z,58.02
2023-07-24T19:56:37.301Z,58.52
2023-07-24T19:59:39.943Z,58.53
2023-07-24T20:02:43.230Z,58.43
2023-07-24T20:05:54.960Z,59.00
2023-07-24T20:08:57.262Z,58.73
2023-07-24T20:11:59.995Z,59.41
2023-07-24T20:15:02.681Z,59.29
2023-07-24T20:18:06.361Z,59.34
2023-07-24T20:21:09.033Z,58.36
2023-07-24T20:24:13.087Z,59.25
2023-07-24T20:27:15.701Z,59.64
2023-07-24T20:30:18.274Z,59.31
2023-07-24T20:33:20.922Z,58.76
2023-07-24T20:36:23.619Z,58.76
2023-07-24T20:39:26.940Z,58.70
2023-07-24T20:42:30.775Z,58.98
2023-07-24T20:45:33.130Z,59.68
2023-07-24T20:48:35.758Z,59.44
2023-07-24T20:51:38.098Z,59.56
2023-07-24T20:54:40.738Z,59.63
2023-07-24T20:57:43.019Z,57.47
2023-07-24T21:00:45.666Z,57.15
2023-07-24T21:03:48.006Z,56.60
2023-07-24T21:06:51.613Z,57.35
2023-07-24T21:09:54.031Z,57.49
2023-07-24T21:12:56.970Z,57.23
2023-07-24T21:15:59.593Z,57.07
2023-07-24T21:19:03.144Z,56.20
2023-07-24T21:22:05.644Z,56.18
2023-07-24T21:25:08.587Z,56.17
2023-07-24T21:28:12.359Z,56.50
2023-07-24T21:31:15.607Z,57.32
2023-07-24T21:34:18.791Z,56.90
2023-07-24T21:37:21.435Z,57.90
2023-07-24T21:40:23.760Z,58.75
2023-07-24T21:43:26.375Z,59.46
2023-07-24T21:46:28.836Z,60.31
2023-07-24T21:49:32.657Z,61.48
2023-07-24T21:52:36.581Z,62.02
2023-07-24T21:55:40.265Z,62.60
2023-07-24T21:58:42.664Z,63.05
2023-07-24T22:01:45.267Z,61.30
2023-07-24T22:04:47.928Z,61.01
2023-07-24T22:07:50.478Z,61.16
2023-07-24T22:10:53.217Z,62.62
2023-07-24T22:13:55.500Z,61.42
2023-07-24T22:16:58.296Z,56.99
2023-07-24T22:20:01.727Z,55.41
2023-07-24T22:23:04.372Z,54.22
2023-07-24T22:26:06.684Z,53.72
2023-07-24T22:29:09.426Z,53.71
2023-07-24T22:32:11.771Z,53.07
2023-07-24T22:35:14.689Z,52.76
2023-07-24T22:38:16.944Z,52.44
2023-07-24T22:41:19.654Z,52.50
2023-07-24T22:44:22.054Z,52.76
2023-07-24T22:47:25.005Z,52.98
2023-07-24T22:50:27.485Z,53.03
2023-07-24T22:53:30.094Z,53.70
2023-07-24T22:56:32.433Z,53.86
2023-07-24T22:59:35.331Z,54.08
2023-07-24T23:02:37.788Z,54.33
2023-07-24T23:05:40.480Z,54.40
2023-07-24T23:08:42.853Z,54.99
2023-07-24T23:11:45.501Z,55.72
2023-07-24T23:14:47.802Z,56.02
2023-07-24T23:17:50.568Z,55.98
2023-07-24T23:20:52.957Z,56.71
2023-07-24T23:23:55.660Z,56.61
2023-07-24T23:26:57.896Z,57.03
2023-07-24T23:30:00.649Z,57.80
2023-07-24T23:33:03.025Z,57.73
2023-07-24T23:36:08.523Z,58.03
2023-07-24T23:39:10.890Z,55.56
2023-07-24T23:42:13.515Z,56.02
2023-07-24T23:45:16.008Z,55.32
2023-07-24T23:48:18.720Z,54.62
2023-07-24T23:51:21.468Z,54.41
2023-07-24T23:54:24.048Z,56.97
2023-07-24T23:57:32.182Z,57.70
